Flight Track Log - Related Links

Times and Time Zones

All times are in EDT time to prevent confusion due to time zone crossing. See the SWA1787 flight status page for this flight to view local times or setup timezone preferences in your user account.

Time Position Orientation Groundspeed Altitude Reporting Facility
EDT Latitude Longitude Course Direction KTS MPH feet Rate Location/Type
Sat 04:21:08 PM 41.7103 -71.4361 258° West 164 189 600  Level Boston Center
Sat 04:22:21 PM 41.6983 -71.5142 258° West 189 217 3,700 1,594 Climbing Boston Center
Sat 04:23:16 PM 41.6950 -71.5950 267° West 233 268 4,000 2,172 Climbing Boston Center
Sat 04:25:15 PM 41.7958 -71.7106 320° Northwest 306 352 10,000 2,682 Climbing Boston Center
Sat 04:26:15 PM 41.8150 -71.8050 285° West 266 306 12,000 2,700 Climbing Boston Center
Sat 04:27:15 PM 41.8325 -71.9275 281° West 324 373 15,400 3,400 Climbing Boston Center
Sat 04:28:15 PM 41.8517 -72.0639 281° West 341 392 18,800 2,850 Climbing Boston Center
Sat 04:29:15 PM 41.8686 -72.1781 281° West 346 398 21,100 2,650 Climbing Boston Center
Sat 04:30:15 PM 41.8878 -72.3231 280° West 359 413 24,100 2,600 Climbing Boston Center
Sat 04:31:15 PM 41.9064 -72.4569 281° West 365 420 26,300 1,950 Climbing Boston Center
Sat 04:32:15 PM 41.9272 -72.5992 281° West 375 432 28,000 1,600 Climbing Boston Center
Sat 04:33:15 PM 41.9081 -72.7386 260° West 369 425 29,500 1,550 Climbing Boston Center
Sat 04:34:15 PM 41.8161 -72.8606 225° Southwest 398 458 31,100 1,600 Climbing Boston Center
Sat 04:35:15 PM 41.7386 -72.9714 227° Southwest 449 517 32,700 1,542 Climbing Boston Center
Sat 04:37:14 PM 41.5442 -73.2297 225° Southwest 448 516 35,700 1,533 Climbing New York Center
Sat 04:38:15 PM 41.4519 -73.3564 226° Southwest 457 526 37,300 1,140 Climbing New York Center
Sat 04:39:15 PM 41.3639 -73.4747 225° Southwest 457 526 38,000 350 Climbing New York Center
Sat 04:40:15 PM 41.2758 -73.5925 225° Southwest 457 526 38,000  Level New York Center
Sat 04:41:13 PM 41.1997 -73.7217 232° Southwest 452 520 38,000  Level New York Center
Sat 04:42:15 PM 41.1256 -73.8478 232° Southwest 446 513 38,000  Level New York Center
Sat 04:43:16 PM 41.0492 -73.9792 232° Southwest 451 519 38,000  Level New York Center
Sat 04:44:14 PM 40.9750 -74.1075 233° Southwest 451 519 38,000  Level New York Center
Sat 04:45:14 PM 40.8989 -74.2192 228° Southwest 451 519 38,000  Level New York Center
Sat 04:46:14 PM 40.8219 -74.3469 232° Southwest 451 519 38,000  Level New York Center
Sat 04:47:15 PM 40.7475 -74.4717 232° Southwest 451 519 38,000  Level New York Center
Sat 04:48:14 PM 40.6706 -74.5961 231° Southwest 451 519 38,000  Level New York Center
Sat 04:49:13 PM 40.5933 -74.7256 232° Southwest 456 525 38,000  Level New York Center
Sat 04:50:14 PM 40.5122 -74.8439 228° Southwest 456 525 38,000  Level New York Center
Sat 04:51:15 PM 40.4289 -74.9644 228° Southwest 450 518 38,000  Level New York Center
Sat 04:52:13 PM 40.3431 -75.0844 227° Southwest 450 518 38,000  Level New York Center
Sat 04:53:14 PM 40.2575 -75.2042 227° Southwest 456 525 38,000  Level New York Center
Sat 04:54:14 PM 40.1736 -75.3239 227° Southwest 456 525 38,000  Level New York Center
Sat 04:55:15 PM 40.0878 -75.4431 227° Southwest 456 525 38,000  Level New York Center
Sat 04:56:14 PM 40.0017 -75.5592 226° Southwest 451 519 38,000  Level New York Center
Sat 04:57:15 PM 39.9156 -75.6806 227° Southwest 451 519 38,000  Level New York Center
Sat 04:59:12 PM 39.7589 -75.9289 231° Southwest 444 511 38,000  Level Washington Center
Sat 05:00:13 PM 39.6794 -76.0553 231° Southwest 454 522 38,000  Level Washington Center
Sat 05:01:13 PM 39.5997 -76.1814 231° Southwest 454 522 38,000  Level Washington Center
Sat 05:02:13 PM 39.5197 -76.3044 230° Southwest 454 522 38,000  Level Washington Center
Sat 05:03:14 PM 39.4397 -76.4300 230° Southwest 454 522 38,000  Level Washington Center
Sat 05:04:12 PM 39.3492 -76.5631 229° Southwest 454 522 38,000  Level Washington Center
Sat 05:05:12 PM 39.2689 -76.6881 230° Southwest 454 522 38,000  Level Washington Center
Sat 05:06:13 PM 39.1886 -76.8153 231° Southwest 454 522 38,000  Level Washington Center
Sat 05:07:14 PM 39.1081 -76.9397 230° Southwest 454 522 38,000  Level Washington Center
Sat 05:08:14 PM 39.0211 -77.0639 228° Southwest 459 528 38,000  Level Washington Center
Sat 05:09:12 PM 38.9217 -77.1739 221° Southwest 464 534 38,000  Level Washington Center
Sat 05:10:13 PM 38.8392 -77.2600 219° Southwest 472 543 38,000  Level Washington Center
Sat 05:11:13 PM 38.7186 -77.3931 221° Southwest 479 551 38,000 500 Level Washington Center
Sat 05:12:13 PM 38.6147 -77.5019 219° Southwest 484 557 39,000 992 Climbing Washington Center
Sat 05:13:14 PM 38.5192 -77.6083 221° Southwest 479 551 40,000 496 Climbing Washington Center
Sat 05:14:14 PM 38.4214 -77.7169 221° Southwest 473 544 40,000  Level Washington Center
Sat 05:15:12 PM 38.3256 -77.8228 221° Southwest 465 535 40,000  Level Washington Center
Sat 05:16:12 PM 38.2297 -77.9258 220° Southwest 465 535 40,000  Level Washington Center
Sat 05:17:13 PM 38.1319 -78.0283 220° Southwest 465 535 40,000  Level Washington Center
Sat 05:18:12 PM 38.0358 -78.1306 220° Southwest 465 535 40,000  Level Washington Center
Sat 05:19:12 PM 37.9528 -78.2147 219° Southwest 454 522 40,000  Level Washington Center
Sat 05:20:13 PM 37.8506 -78.3111 217° Southwest 454 522 40,000  Level Washington Center
Sat 05:21:14 PM 37.7481 -78.4072 217° Southwest 459 528 40,000  Level Washington Center
Sat 05:22:14 PM 37.6372 -78.5133 217° Southwest 467 537 40,000  Level Washington Center
Sat 05:23:14 PM 37.5325 -78.6089 216° Southwest 467 537 40,000  Level Washington Center
Sat 05:24:12 PM 37.4322 -78.7042 217° Southwest 467 537 40,000  Level Washington Center
Sat 05:25:13 PM 37.3294 -78.8019 217° Southwest 467 537 40,000  Level Washington Center
Sat 05:26:14 PM 37.2375 -78.8842 215° Southwest 467 537 40,000  Level Washington Center
Sat 05:27:12 PM 37.1367 -78.9789 217° Southwest 467 537 40,000  Level Washington Center
Sat 05:28:12 PM 37.0317 -79.0756 216° Southwest 467 537 40,000  Level Washington Center
Sat 05:29:13 PM 36.9311 -79.1672 216° Southwest 467 537 40,000  Level Washington Center
Sat 05:30:13 PM 36.8172 -79.2736 217° Southwest 467 537 40,000  Level Washington Center
Sat 05:31:14 PM 36.7142 -79.3669 216° Southwest 467 537 40,000  Level Washington Center
Sat 05:34:08 PM 36.4092 -79.6431 216° Southwest 472 543 40,000  Level Atlanta Center
Sat 05:35:08 PM 36.3042 -79.7389 216° Southwest 466 536 40,000  Level Atlanta Center
Sat 05:36:08 PM 36.2031 -79.8317 217° Southwest 472 543 40,000  Level Atlanta Center
Sat 05:37:08 PM 36.1100 -79.9136 215° Southwest 477 549 40,000  Level Atlanta Center
Sat 05:38:08 PM 36.0000 -79.9989 212° Southwest 472 543 40,000  Level Atlanta Center
Sat 05:39:08 PM 35.8789 -80.0586 202° Southwest 462 532 40,000  Level Atlanta Center
Sat 05:40:08 PM 35.7456 -80.1267 203° Southwest 475 547 40,000  Level Atlanta Center
Sat 05:41:08 PM 35.6347 -80.1831 202° Southwest 480 552 40,000  Level Atlanta Center
Sat 05:42:08 PM 35.5136 -80.2447 203° Southwest 480 552 40,000  Level Atlanta Center
Sat 05:43:08 PM 35.3922 -80.3039 202° Southwest 480 552 40,000  Level Atlanta Center
Sat 05:44:08 PM 35.2731 -80.3628 202° Southwest 470 541 40,000  Level Atlanta Center
Sat 05:45:08 PM 35.1414 -80.4294 202° Southwest 470 541 40,000  Level Atlanta Center
Sat 05:47:11 PM 34.9036 -80.5461 202° Southwest 483 556 40,000  Level Jacksonville Center
Sat 05:48:11 PM 34.7919 -80.6047 203° Southwest 478 550 40,000  Level Jacksonville Center
Sat 05:49:11 PM 34.6700 -80.6611 201° Southwest 464 534 40,000  Level Jacksonville Center
Sat 05:50:11 PM 34.5314 -80.7303 202° Southwest 477 549 40,000  Level Jacksonville Center
Sat 05:51:11 PM 34.4094 -80.7986 205° Southwest 474 545 40,000  Level Jacksonville Center
Sat 05:52:11 PM 34.2914 -80.8517 200° South 466 536 40,000  Level Jacksonville Center
Sat 05:53:11 PM 34.1858 -80.8994 201° Southwest 460 529 40,000  Level Jacksonville Center
Sat 05:54:11 PM 34.0656 -80.9497 199° South 460 529 40,000  Level Jacksonville Center
Sat 05:55:11 PM 33.9411 -80.9925 196° South 465 535 40,000 -300 Level Jacksonville Center
Sat 05:56:11 PM 33.8186 -81.0328 195° South 465 535 39,400 -750 Descending Jacksonville Center
Sat 05:57:11 PM 33.6897 -81.0753 195° South 465 535 38,500 -700 Descending Jacksonville Center
Sat 05:58:11 PM 33.5569 -81.1181 195° South 484 557 38,000 -250 Descending Jacksonville Center
Sat 05:59:11 PM 33.4239 -81.1606 195° South 490 564 38,000  Level Jacksonville Center
Sat 06:00:11 PM 33.2931 -81.2028 195° South 490 564 38,000  Level Jacksonville Center
Sat 06:01:11 PM 33.1661 -81.2450 196° South 490 564 38,000  Level Jacksonville Center
Sat 06:02:11 PM 33.0269 -81.2869 194° South 490 564 38,000  Level Jacksonville Center
Sat 06:03:11 PM 32.9022 -81.3289 196° South 478 550 38,000  Level Jacksonville Center
Sat 06:04:11 PM 32.7794 -81.3681 195° South 466 536 38,000  Level Jacksonville Center
Sat 06:05:11 PM 32.6589 -81.4094 196° South 454 522 38,000  Level Jacksonville Center
Sat 06:06:11 PM 32.5403 -81.4486 196° South 454 522 38,000  Level Jacksonville Center
Sat 06:07:11 PM 32.4281 -81.4822 194° South 454 522 38,000  Level Jacksonville Center
Sat 06:08:11 PM 32.2950 -81.5261 196° South 454 522 38,000  Level Jacksonville Center
Sat 06:09:11 PM 32.1722 -81.5647 195° South 456 525 38,000  Level Jacksonville Center
Sat 06:10:11 PM 32.0472 -81.6033 195° South 456 525 38,000  Level Jacksonville Center
Sat 06:11:11 PM 31.9264 -81.6417 195° South 456 525 38,000  Level Jacksonville Center
Sat 06:12:11 PM 31.8161 -81.6750 194° South 456 525 38,000  Level Jacksonville Center
Sat 06:13:11 PM 31.6808 -81.7158 194° South 462 532 38,000  Level Jacksonville Center
Sat 06:14:11 PM 31.5622 -81.7539 195° South 457 526 38,000  Level Jacksonville Center
Sat 06:15:11 PM 31.4497 -81.7894 195° South 452 520 38,000  Level Jacksonville Center
Sat 06:16:11 PM 31.3164 -81.8347 196° South 460 529 38,000  Level Jacksonville Center
Sat 06:17:11 PM 31.1936 -81.8700 194° South 454 522 38,000  Level Jacksonville Center
Sat 06:18:11 PM 31.0728 -81.9078 195° South 449 517 38,000  Level Jacksonville Center
Sat 06:19:11 PM 30.9500 -81.9478 196° South 454 522 38,000  Level Jacksonville Center
Sat 06:20:11 PM 30.8292 -81.9831 194° South 454 522 38,000  Level Jacksonville Center
Sat 06:21:11 PM 30.7103 -82.0203 195° South 454 522 38,000  Level Jacksonville Center
Sat 06:22:11 PM 30.5894 -82.0575 195° South 454 522 38,000  Level Jacksonville Center
Sat 06:23:11 PM 30.4831 -82.0850 193° South 448 516 38,000  Level Jacksonville Center
Sat 06:24:11 PM 30.3664 -82.1197 194° South 448 516 38,000 -100 Level Jacksonville Center
Sat 06:25:11 PM 30.2456 -82.1567 195° South 448 516 37,800 -600 Descending Jacksonville Center
Sat 06:26:11 PM 30.1267 -82.1914 194° South 448 516 36,800 -1,650 Descending Jacksonville Center
Sat 06:27:11 PM 29.9956 -82.2378 197° South 448 516 34,500 -2,300 Descending Jacksonville Center
Sat 06:28:11 PM 29.8767 -82.2744 195° South 448 516 32,200 -2,200 Descending Jacksonville Center
Sat 06:29:11 PM 29.7725 -82.3039 194° South 448 516 30,100 -2,050 Descending Jacksonville Center
Sat 06:30:11 PM 29.6597 -82.3356 194° South 430 495 28,100 -1,700 Descending Jacksonville Center
Sat 06:31:11 PM 29.5389 -82.3556 188° South 418 481 26,700 -1,450 Descending Jacksonville Center
Sat 06:32:11 PM 29.4239 -82.3419 174° South 407 468 25,200 -1,650 Descending Jacksonville Center
Sat 06:33:11 PM 29.3153 -82.3281 174° South 402 463 23,400 -1,850 Descending Jacksonville Center
Sat 06:34:11 PM 29.2089 -82.3122 173° South 402 463 21,500 -1,900 Descending Jacksonville Center
Sat 06:35:11 PM 29.1003 -82.3008 175° South 397 457 19,600 -1,850 Descending Jacksonville Center
Sat 06:36:11 PM 29.0000 -82.2894 174° South 384 442 17,800 -1,800 Descending Jacksonville Center
Sat 06:37:11 PM 28.8997 -82.2806 176° South 378 435 16,000 -1,714 Descending Jacksonville Center
Sat 06:38:59 PM 28.7333 -82.2667 176° South 342 394 13,000 -1,357 Descending Tampa TRACON
Sat 06:39:59 PM 28.6333 -82.2500 172° South 320 368 12,200 -882 Descending Tampa TRACON
Sat 06:40:41 PM 28.5833 -82.2667 196° South 315 362 11,500 -1,000 Descending Tampa TRACON
Sat 06:41:53 PM 28.5000 -82.3333 215° Southwest 309 356 10,300 -1,050 Descending Tampa TRACON
Sat 06:42:41 PM 28.4500 -82.4000 230° Southwest 301 346 9,400 -1,286 Descending Tampa TRACON
Sat 06:43:59 PM 28.4000 -82.5000 240° Southwest 291 335 7,600 -1,091 Descending Tampa TRACON
Sat 06:44:53 PM 28.3833 -82.5667 254° West 283 326 7,000 -286 Descending Tampa TRACON
Sat 06:46:05 PM 28.3167 -82.6500 228° Southwest 283 326 7,000 45 Level Tampa TRACON
Sat 06:47:05 PM 28.2500 -82.6500 180° South 278 320 7,100 50 Climbing Tampa TRACON
Sat 06:48:05 PM 28.1667 -82.6500 180° South 278 320 7,100 -59 Level Tampa TRACON
Sat 06:48:47 PM 28.1167 -82.6333 164° South 279 321 7,000 -699 Descending Tampa TRACON
Sat 06:49:48 PM 28.0333 -82.6333 180° South 268 308 5,900 -906 Descending Tampa TRACON
Sat 06:51:06 PM 27.9500 -82.6333 180° South 231 266 4,900 -900 Descending Tampa TRACON
Sat 06:51:48 PM 27.9000 -82.6333 180° South 190 219 4,100 -1,353 Descending Tampa TRACON
Sat 06:52:48 PM 27.8667 -82.6000 139° Southeast 165 190 2,600 -1,421 Descending Tampa TRACON
Sat 06:53:42 PM 27.9000 -82.5667 41° Northeast 146 168 1,400 -955 Descending Tampa TRACON
Sat 06:55:00 PM 27.9333 -82.5500 24° Northeast 142 163 500 -692 Descending Tampa TRACON
Sat 06:56:00 PM 27.9667 -82.5167 350° North  Level FlightAware Approximate
Sat 07:03:00 PM 27.9755 -82.5332 350° North  Level Estimated
Sat 07:04:00 PM 27.9755 -82.5332 350° North  Level Estimated
Sat 07:05:00 PM 27.9755 -82.5332 350° North  Level Estimated

Login

Don't have an account? Register now (free) for customized features, flight alerts, and more!